sensor_id;sensor_type;location;lat;lon;timestamp;P1;durP1;ratioP1;P2;durP2;ratioP2
42682;SDS011;28293;50.930;3.464;2023-03-21T00:01:03;17.02;;;11.10;;
42682;SDS011;28293;50.930;3.464;2023-03-21T00:03:30;21.27;;;12.35;;
42682;SDS011;28293;50.930;3.464;2023-03-21T00:05:57;18.90;;;11.85;;
42682;SDS011;28293;50.930;3.464;2023-03-21T00:08:28;18.90;;;10.98;;
42682;SDS011;28293;50.930;3.464;2023-03-21T00:10:55;18.70;;;11.95;;
42682;SDS011;28293;50.930;3.464;2023-03-21T00:13:25;19.08;;;11.55;;
42682;SDS011;28293;50.930;3.464;2023-03-21T00:15:52;17.95;;;10.18;;
42682;SDS011;28293;50.930;3.464;2023-03-21T00:18:21;18.88;;;11.23;;
42682;SDS011;28293;50.930;3.464;2023-03-21T00:20:59;19.52;;;11.35;;
42682;SDS011;28293;50.930;3.464;2023-03-21T00:23:28;20.75;;;11.07;;
42682;SDS011;28293;50.930;3.464;2023-03-21T00:25:55;18.85;;;10.88;;
42682;SDS011;28293;50.930;3.464;2023-03-21T00:28:21;22.65;;;10.75;;
42682;SDS011;28293;50.930;3.464;2023-03-21T00:30:47;18.02;;;11.55;;
42682;SDS011;28293;50.930;3.464;2023-03-21T00:33:13;17.67;;;11.32;;
42682;SDS011;28293;50.930;3.464;2023-03-21T00:35:39;21.10;;;11.32;;
42682;SDS011;28293;50.930;3.464;2023-03-21T00:38:12;16.92;;;10.45;;
42682;SDS011;28293;50.930;3.464;2023-03-21T00:40:38;20.83;;;11.10;;
42682;SDS011;28293;50.930;3.464;2023-03-21T00:43:04;18.05;;;11.30;;
42682;SDS011;28293;50.930;3.464;2023-03-21T00:45:30;18.83;;;11.80;;
42682;SDS011;28293;50.930;3.464;2023-03-21T00:47:56;16.30;;;10.65;;
42682;SDS011;28293;50.930;3.464;2023-03-21T00:50:22;15.63;;;9.52;;
42682;SDS011;28293;50.930;3.464;2023-03-21T00:52:48;19.33;;;11.07;;
42682;SDS011;28293;50.930;3.464;2023-03-21T00:55:14;19.38;;;10.27;;
42682;SDS011;28293;50.930;3.464;2023-03-21T00:57:41;19.52;;;10.98;;
42682;SDS011;28293;50.930;3.464;2023-03-21T01:00:09;18.83;;;9.93;;
42682;SDS011;28293;50.930;3.464;2023-03-21T01:02:38;18.13;;;10.80;;
42682;SDS011;28293;50.930;3.464;2023-03-21T01:05:20;18.35;;;11.18;;
42682;SDS011;28293;50.930;3.464;2023-03-21T01:08:13;17.75;;;9.82;;
42682;SDS011;28293;50.930;3.464;2023-03-21T01:10:41;18.10;;;11.35;;
42682;SDS011;28293;50.930;3.464;2023-03-21T01:13:08;17.83;;;10.13;;
42682;SDS011;28293;50.930;3.464;2023-03-21T01:15:36;21.48;;;12.90;;
42682;SDS011;28293;50.930;3.464;2023-03-21T01:18:06;18.52;;;10.80;;
42682;SDS011;28293;50.930;3.464;2023-03-21T01:20:32;19.45;;;11.40;;
42682;SDS011;28293;50.930;3.464;2023-03-21T01:22:58;21.65;;;13.05;;
42682;SDS011;28293;50.930;3.464;2023-03-21T01:25:23;25.38;;;14.80;;
42682;SDS011;28293;50.930;3.464;2023-03-21T01:27:49;20.67;;;12.00;;
42682;SDS011;28293;50.930;3.464;2023-03-21T01:30:15;21.55;;;12.45;;
42682;SDS011;28293;50.930;3.464;2023-03-21T01:32:41;21.65;;;12.02;;
42682;SDS011;28293;50.930;3.464;2023-03-21T01:35:07;16.27;;;10.63;;
42682;SDS011;28293;50.930;3.464;2023-03-21T01:37:32;16.52;;;9.30;;
42682;SDS011;28293;50.930;3.464;2023-03-21T01:39:58;18.80;;;9.10;;
42682;SDS011;28293;50.930;3.464;2023-03-21T01:42:24;17.55;;;9.73;;
42682;SDS011;28293;50.930;3.464;2023-03-21T01:45:03;19.50;;;9.32;;
42682;SDS011;28293;50.930;3.464;2023-03-21T01:47:31;16.83;;;9.13;;
42682;SDS011;28293;50.930;3.464;2023-03-21T01:49:58;18.40;;;10.70;;
42682;SDS011;28293;50.930;3.464;2023-03-21T01:52:31;16.33;;;10.05;;
42682;SDS011;28293;50.930;3.464;2023-03-21T01:55:01;20.10;;;9.50;;
42682;SDS011;28293;50.930;3.464;2023-03-21T01:57:32;16.45;;;9.05;;
42682;SDS011;28293;50.930;3.464;2023-03-21T02:00:03;17.27;;;8.75;;
42682;SDS011;28293;50.930;3.464;2023-03-21T02:02:36;17.13;;;8.35;;
42682;SDS011;28293;50.930;3.464;2023-03-21T02:05:16;15.75;;;8.77;;
42682;SDS011;28293;50.930;3.464;2023-03-21T02:07:44;16.42;;;8.85;;
42682;SDS011;28293;50.930;3.464;2023-03-21T02:10:11;17.05;;;8.73;;
42682;SDS011;28293;50.930;3.464;2023-03-21T02:12:40;17.17;;;9.40;;
42682;SDS011;28293;50.930;3.464;2023-03-21T02:15:06;12.02;;;7.40;;
42682;SDS011;28293;50.930;3.464;2023-03-21T02:25:20;15.88;;;7.65;;
42682;SDS011;28293;50.930;3.464;2023-03-21T02:28:00;17.17;;;7.60;;
42682;SDS011;28293;50.930;3.464;2023-03-21T02:43:03;17.00;;;8.07;;
42682;SDS011;28293;50.930;3.464;2023-03-21T02:47:33;19.85;;;8.40;;
42682;SDS011;28293;50.930;3.464;2023-03-21T02:50:18;19.45;;;8.18;;
42682;SDS011;28293;50.930;3.464;2023-03-21T02:52:50;16.95;;;8.45;;
42682;SDS011;28293;50.930;3.464;2023-03-21T02:55:25;17.27;;;8.38;;
42682;SDS011;28293;50.930;3.464;2023-03-21T02:57:53;14.38;;;8.15;;
42682;SDS011;28293;50.930;3.464;2023-03-21T03:00:22;17.13;;;8.90;;
42682;SDS011;28293;50.930;3.464;2023-03-21T03:02:50;17.65;;;8.20;;
42682;SDS011;28293;50.930;3.464;2023-03-21T03:05:18;20.50;;;9.00;;
42682;SDS011;28293;50.930;3.464;2023-03-21T03:15:41;15.27;;;8.88;;
42682;SDS011;28293;50.930;3.464;2023-03-21T03:24:00;17.63;;;9.77;;
42682;SDS011;28293;50.930;3.464;2023-03-21T03:26:38;18.08;;;8.32;;
42682;SDS011;28293;50.930;3.464;2023-03-21T03:29:12;17.98;;;8.65;;
42682;SDS011;28293;50.930;3.464;2023-03-21T03:31:45;16.85;;;8.75;;
42682;SDS011;28293;50.930;3.464;2023-03-21T03:34:32;21.40;;;9.32;;
42682;SDS011;28293;50.930;3.464;2023-03-21T03:37:04;17.50;;;9.15;;
42682;SDS011;28293;50.930;3.464;2023-03-21T03:39:37;17.63;;;8.73;;
42682;SDS011;28293;50.930;3.464;2023-03-21T03:42:12;19.55;;;8.88;;
42682;SDS011;28293;50.930;3.464;2023-03-21T03:44:41;18.93;;;10.27;;
42682;SDS011;28293;50.930;3.464;2023-03-21T03:47:08;17.35;;;9.43;;
42682;SDS011;28293;50.930;3.464;2023-03-21T03:49:38;23.02;;;9.73;;
42682;SDS011;28293;50.930;3.464;2023-03-21T03:52:21;16.40;;;9.38;;
42682;SDS011;28293;50.930;3.464;2023-03-21T03:54:58;16.98;;;9.02;;
42682;SDS011;28293;50.930;3.464;2023-03-21T03:57:25;18.65;;;9.13;;
42682;SDS011;28293;50.930;3.464;2023-03-21T03:59:51;19.05;;;9.48;;
42682;SDS011;28293;50.930;3.464;2023-03-21T04:02:17;21.05;;;10.63;;
42682;SDS011;28293;50.930;3.464;2023-03-21T04:04:44;22.23;;;10.50;;
42682;SDS011;28293;50.930;3.464;2023-03-21T04:07:10;18.30;;;9.73;;
42682;SDS011;28293;50.930;3.464;2023-03-21T04:09:35;24.85;;;10.50;;
42682;SDS011;28293;50.930;3.464;2023-03-21T04:12:01;17.10;;;10.10;;
42682;SDS011;28293;50.930;3.464;2023-03-21T04:14:27;16.13;;;10.32;;
42682;SDS011;28293;50.930;3.464;2023-03-21T04:16:52;20.75;;;9.95;;
42682;SDS011;28293;50.930;3.464;2023-03-21T04:19:18;20.45;;;9.88;;
42682;SDS011;28293;50.930;3.464;2023-03-21T04:21:44;17.08;;;10.45;;
42682;SDS011;28293;50.930;3.464;2023-03-21T04:24:10;16.48;;;10.05;;
42682;SDS011;28293;50.930;3.464;2023-03-21T04:26:37;20.80;;;11.18;;
42682;SDS011;28293;50.930;3.464;2023-03-21T04:29:03;22.63;;;11.48;;
42682;SDS011;28293;50.930;3.464;2023-03-21T04:31:29;21.20;;;10.00;;
42682;SDS011;28293;50.930;3.464;2023-03-21T04:33:57;16.50;;;10.38;;
42682;SDS011;28293;50.930;3.464;2023-03-21T04:36:27;23.65;;;11.02;;
42682;SDS011;28293;50.930;3.464;2023-03-21T04:39:03;19.10;;;10.98;;
42682;SDS011;28293;50.930;3.464;2023-03-21T04:41:36;21.67;;;11.50;;
42682;SDS011;28293;50.930;3.464;2023-03-21T04:44:03;21.80;;;12.23;;
42682;SDS011;28293;50.930;3.464;2023-03-21T04:46:29;19.10;;;10.18;;
42682;SDS011;28293;50.930;3.464;2023-03-21T04:48:54;17.45;;;9.95;;
42682;SDS011;28293;50.930;3.464;2023-03-21T04:51:20;17.63;;;10.05;;
42682;SDS011;28293;50.930;3.464;2023-03-21T04:53:46;18.55;;;10.68;;
42682;SDS011;28293;50.930;3.464;2023-03-21T04:56:13;19.30;;;9.65;;
42682;SDS011;28293;50.930;3.464;2023-03-21T04:58:40;20.23;;;10.13;;
42682;SDS011;28293;50.930;3.464;2023-03-21T05:01:06;18.55;;;10.35;;
42682;SDS011;28293;50.930;3.464;2023-03-21T05:03:33;19.10;;;10.35;;
42682;SDS011;28293;50.930;3.464;2023-03-21T05:06:03;18.95;;;10.40;;
42682;SDS011;28293;50.930;3.464;2023-03-21T05:08:31;19.58;;;11.82;;
42682;SDS011;28293;50.930;3.464;2023-03-21T05:10:57;21.52;;;11.43;;
42682;SDS011;28293;50.930;3.464;2023-03-21T05:13:22;19.17;;;11.40;;
42682;SDS011;28293;50.930;3.464;2023-03-21T05:15:48;21.30;;;12.10;;
42682;SDS011;28293;50.930;3.464;2023-03-21T05:18:13;20.67;;;11.48;;
42682;SDS011;28293;50.930;3.464;2023-03-21T05:20:39;22.20;;;12.05;;
42682;SDS011;28293;50.930;3.464;2023-03-21T05:23:09;22.48;;;12.68;;
42682;SDS011;28293;50.930;3.464;2023-03-21T05:25:38;21.55;;;13.48;;
42682;SDS011;28293;50.930;3.464;2023-03-21T05:28:05;23.35;;;12.88;;
42682;SDS011;28293;50.930;3.464;2023-03-21T05:30:31;23.67;;;13.55;;
42682;SDS011;28293;50.930;3.464;2023-03-21T05:32:57;21.35;;;14.48;;
42682;SDS011;28293;50.930;3.464;2023-03-21T05:35:24;22.15;;;14.80;;
42682;SDS011;28293;50.930;3.464;2023-03-21T05:37:49;27.88;;;15.48;;
42682;SDS011;28293;50.930;3.464;2023-03-21T05:40:15;23.92;;;15.40;;
42682;SDS011;28293;50.930;3.464;2023-03-21T05:42:41;26.30;;;16.67;;
42682;SDS011;28293;50.930;3.464;2023-03-21T05:45:07;28.38;;;18.17;;
42682;SDS011;28293;50.930;3.464;2023-03-21T05:47:33;31.23;;;19.52;;
42682;SDS011;28293;50.930;3.464;2023-03-21T05:49:59;26.08;;;18.67;;
42682;SDS011;28293;50.930;3.464;2023-03-21T05:52:24;31.80;;;19.17;;
42682;SDS011;28293;50.930;3.464;2023-03-21T05:54:50;33.08;;;20.20;;
42682;SDS011;28293;50.930;3.464;2023-03-21T05:57:16;31.63;;;20.00;;
42682;SDS011;28293;50.930;3.464;2023-03-21T05:59:43;30.38;;;19.48;;
42682;SDS011;28293;50.930;3.464;2023-03-21T06:02:10;31.77;;;20.70;;
42682;SDS011;28293;50.930;3.464;2023-03-21T06:04:35;34.05;;;20.10;;
42682;SDS011;28293;50.930;3.464;2023-03-21T06:07:02;29.95;;;19.35;;
42682;SDS011;28293;50.930;3.464;2023-03-21T06:09:28;31.73;;;20.63;;
42682;SDS011;28293;50.930;3.464;2023-03-21T06:11:54;27.58;;;18.83;;
42682;SDS011;28293;50.930;3.464;2023-03-21T06:14:21;28.42;;;19.83;;
42682;SDS011;28293;50.930;3.464;2023-03-21T06:16:47;29.00;;;18.77;;
42682;SDS011;28293;50.930;3.464;2023-03-21T06:19:13;28.60;;;18.83;;
42682;SDS011;28293;50.930;3.464;2023-03-21T06:21:39;33.42;;;18.55;;
42682;SDS011;28293;50.930;3.464;2023-03-21T06:24:05;32.08;;;18.00;;
42682;SDS011;28293;50.930;3.464;2023-03-21T06:26:31;32.15;;;17.88;;
42682;SDS011;28293;50.930;3.464;2023-03-21T06:28:57;35.20;;;18.73;;
42682;SDS011;28293;50.930;3.464;2023-03-21T06:31:23;28.50;;;17.60;;
42682;SDS011;28293;50.930;3.464;2023-03-21T06:33:50;26.75;;;17.65;;
42682;SDS011;28293;50.930;3.464;2023-03-21T06:36:17;27.20;;;17.88;;
42682;SDS011;28293;50.930;3.464;2023-03-21T06:38:43;28.70;;;17.13;;
42682;SDS011;28293;50.930;3.464;2023-03-21T06:41:11;27.42;;;17.63;;
42682;SDS011;28293;50.930;3.464;2023-03-21T06:43:37;24.27;;;16.15;;
42682;SDS011;28293;50.930;3.464;2023-03-21T06:46:03;24.88;;;17.02;;
42682;SDS011;28293;50.930;3.464;2023-03-21T06:48:29;27.17;;;16.70;;
42682;SDS011;28293;50.930;3.464;2023-03-21T06:50:55;25.20;;;15.32;;
42682;SDS011;28293;50.930;3.464;2023-03-21T06:53:22;29.67;;;16.02;;
42682;SDS011;28293;50.930;3.464;2023-03-21T06:55:51;23.10;;;15.35;;
42682;SDS011;28293;50.930;3.464;2023-03-21T06:58:18;26.80;;;15.80;;
42682;SDS011;28293;50.930;3.464;2023-03-21T07:00:44;23.98;;;15.00;;
42682;SDS011;28293;50.930;3.464;2023-03-21T07:03:11;25.45;;;14.50;;
42682;SDS011;28293;50.930;3.464;2023-03-21T07:05:37;29.60;;;16.10;;
42682;SDS011;28293;50.930;3.464;2023-03-21T07:08:04;27.55;;;15.38;;
42682;SDS011;28293;50.930;3.464;2023-03-21T07:10:30;22.33;;;14.35;;
42682;SDS011;28293;50.930;3.464;2023-03-21T07:12:59;21.50;;;14.13;;
42682;SDS011;28293;50.930;3.464;2023-03-21T07:15:25;27.90;;;14.00;;
42682;SDS011;28293;50.930;3.464;2023-03-21T07:17:51;24.08;;;13.32;;
42682;SDS011;28293;50.930;3.464;2023-03-21T07:20:16;25.75;;;14.90;;
42682;SDS011;28293;50.930;3.464;2023-03-21T07:22:42;23.17;;;13.30;;
42682;SDS011;28293;50.930;3.464;2023-03-21T07:25:09;24.98;;;14.07;;
42682;SDS011;28293;50.930;3.464;2023-03-21T07:27:35;25.02;;;13.10;;
42682;SDS011;28293;50.930;3.464;2023-03-21T07:30:01;20.65;;;12.68;;
42682;SDS011;28293;50.930;3.464;2023-03-21T07:32:33;24.50;;;13.23;;
42682;SDS011;28293;50.930;3.464;2023-03-21T07:35:02;20.40;;;13.15;;
42682;SDS011;28293;50.930;3.464;2023-03-21T07:37:27;22.38;;;12.63;;
42682;SDS011;28293;50.930;3.464;2023-03-21T07:39:54;22.63;;;13.68;;
42682;SDS011;28293;50.930;3.464;2023-03-21T07:42:20;19.55;;;11.45;;
42682;SDS011;28293;50.930;3.464;2023-03-21T07:44:45;24.10;;;12.48;;
42682;SDS011;28293;50.930;3.464;2023-03-21T07:47:11;23.25;;;12.45;;
42682;SDS011;28293;50.930;3.464;2023-03-21T07:49:36;23.73;;;12.43;;
42682;SDS011;28293;50.930;3.464;2023-03-21T07:52:03;24.25;;;12.13;;
42682;SDS011;28293;50.930;3.464;2023-03-21T07:54:28;21.08;;;12.25;;
42682;SDS011;28293;50.930;3.464;2023-03-21T07:56:55;22.33;;;12.45;;
42682;SDS011;28293;50.930;3.464;2023-03-21T07:59:21;20.75;;;11.27;;
42682;SDS011;28293;50.930;3.464;2023-03-21T08:01:47;19.55;;;11.00;;
42682;SDS011;28293;50.930;3.464;2023-03-21T08:04:13;19.58;;;10.73;;
42682;SDS011;28293;50.930;3.464;2023-03-21T08:06:39;19.30;;;10.73;;
42682;SDS011;28293;50.930;3.464;2023-03-21T08:09:05;19.92;;;10.55;;
42682;SDS011;28293;50.930;3.464;2023-03-21T08:11:31;19.33;;;11.23;;
42682;SDS011;28293;50.930;3.464;2023-03-21T08:13:57;23.73;;;10.68;;
42682;SDS011;28293;50.930;3.464;2023-03-21T08:16:23;21.60;;;10.23;;
42682;SDS011;28293;50.930;3.464;2023-03-21T08:18:49;18.58;;;10.88;;
42682;SDS011;28293;50.930;3.464;2023-03-21T08:21:15;16.15;;;9.60;;
42682;SDS011;28293;50.930;3.464;2023-03-21T08:23:41;19.42;;;10.13;;
42682;SDS011;28293;50.930;3.464;2023-03-21T08:26:07;18.75;;;9.95;;
42682;SDS011;28293;50.930;3.464;2023-03-21T08:28:33;16.25;;;10.48;;
42682;SDS011;28293;50.930;3.464;2023-03-21T08:31:01;16.25;;;9.35;;
42682;SDS011;28293;50.930;3.464;2023-03-21T08:33:32;16.40;;;9.77;;
42682;SDS011;28293;50.930;3.464;2023-03-21T08:35:58;21.30;;;9.85;;
42682;SDS011;28293;50.930;3.464;2023-03-21T08:38:25;18.27;;;9.68;;
42682;SDS011;28293;50.930;3.464;2023-03-21T08:40:54;18.35;;;10.43;;
42682;SDS011;28293;50.930;3.464;2023-03-21T08:43:20;17.73;;;10.38;;
42682;SDS011;28293;50.930;3.464;2023-03-21T08:45:46;19.17;;;9.98;;
42682;SDS011;28293;50.930;3.464;2023-03-21T08:48:12;16.77;;;9.20;;
42682;SDS011;28293;50.930;3.464;2023-03-21T08:50:38;17.23;;;10.45;;
42682;SDS011;28293;50.930;3.464;2023-03-21T08:53:04;18.10;;;10.38;;
42682;SDS011;28293;50.930;3.464;2023-03-21T08:55:30;15.88;;;9.13;;
42682;SDS011;28293;50.930;3.464;2023-03-21T08:57:57;13.38;;;9.00;;
42682;SDS011;28293;50.930;3.464;2023-03-21T09:00:23;16.60;;;9.50;;
42682;SDS011;28293;50.930;3.464;2023-03-21T09:02:50;18.70;;;9.80;;
42682;SDS011;28293;50.930;3.464;2023-03-21T09:05:18;15.93;;;9.38;;
42682;SDS011;28293;50.930;3.464;2023-03-21T09:07:45;16.67;;;9.18;;
42682;SDS011;28293;50.930;3.464;2023-03-21T09:10:13;16.95;;;8.35;;
42682;SDS011;28293;50.930;3.464;2023-03-21T09:12:43;16.15;;;8.80;;
42682;SDS011;28293;50.930;3.464;2023-03-21T09:15:09;19.95;;;9.45;;
42682;SDS011;28293;50.930;3.464;2023-03-21T09:17:36;16.52;;;8.90;;
42682;SDS011;28293;50.930;3.464;2023-03-21T09:20:08;15.70;;;8.43;;
42682;SDS011;28293;50.930;3.464;2023-03-21T09:22:45;16.05;;;9.15;;
42682;SDS011;28293;50.930;3.464;2023-03-21T09:25:13;15.45;;;8.00;;
42682;SDS011;28293;50.930;3.464;2023-03-21T09:27:40;18.77;;;8.02;;
42682;SDS011;28293;50.930;3.464;2023-03-21T09:30:17;13.55;;;7.55;;
42682;SDS011;28293;50.930;3.464;2023-03-21T09:32:45;18.20;;;8.13;;
42682;SDS011;28293;50.930;3.464;2023-03-21T09:35:14;14.80;;;8.23;;
42682;SDS011;28293;50.930;3.464;2023-03-21T09:37:43;15.45;;;8.32;;
42682;SDS011;28293;50.930;3.464;2023-03-21T09:40:13;16.30;;;7.75;;
42682;SDS011;28293;50.930;3.464;2023-03-21T09:42:49;15.13;;;7.93;;
42682;SDS011;28293;50.930;3.464;2023-03-21T09:45:22;17.50;;;8.73;;
42682;SDS011;28293;50.930;3.464;2023-03-21T09:48:17;14.27;;;8.05;;
42682;SDS011;28293;50.930;3.464;2023-03-21T09:50:54;14.63;;;7.70;;
42682;SDS011;28293;50.930;3.464;2023-03-21T09:53:24;12.98;;;6.95;;
42682;SDS011;28293;50.930;3.464;2023-03-21T09:55:56;13.85;;;8.10;;
42682;SDS011;28293;50.930;3.464;2023-03-21T10:01:05;13.68;;;8.57;;
42682;SDS011;28293;50.930;3.464;2023-03-21T10:03:51;15.73;;;8.52;;
42682;SDS011;28293;50.930;3.464;2023-03-21T10:06:20;16.63;;;7.25;;
42682;SDS011;28293;50.930;3.464;2023-03-21T10:11:35;16.52;;;7.53;;
42682;SDS011;28293;50.930;3.464;2023-03-21T10:19:56;19.95;;;7.30;;
42682;SDS011;28293;50.930;3.464;2023-03-21T10:22:36;12.57;;;6.90;;
42682;SDS011;28293;50.930;3.464;2023-03-21T10:25:03;12.85;;;7.18;;
42682;SDS011;28293;50.930;3.464;2023-03-21T10:27:30;11.80;;;7.25;;
42682;SDS011;28293;50.930;3.464;2023-03-21T10:29:57;13.38;;;7.13;;
42682;SDS011;28293;50.930;3.464;2023-03-21T10:32:25;13.68;;;6.40;;
42682;SDS011;28293;50.930;3.464;2023-03-21T10:34:54;12.90;;;6.63;;
42682;SDS011;28293;50.930;3.464;2023-03-21T10:37:22;13.30;;;6.10;;
42682;SDS011;28293;50.930;3.464;2023-03-21T10:39:49;14.02;;;6.80;;
42682;SDS011;28293;50.930;3.464;2023-03-21T10:42:26;14.68;;;5.97;;
42682;SDS011;28293;50.930;3.464;2023-03-21T10:44:55;13.57;;;6.15;;
42682;SDS011;28293;50.930;3.464;2023-03-21T10:47:23;10.15;;;4.78;;
42682;SDS011;28293;50.930;3.464;2023-03-21T10:49:50;10.27;;;5.15;;
42682;SDS011;28293;50.930;3.464;2023-03-21T10:52:20;11.00;;;5.13;;
42682;SDS011;28293;50.930;3.464;2023-03-21T10:54:47;9.25;;;4.82;;
42682;SDS011;28293;50.930;3.464;2023-03-21T10:57:20;11.23;;;4.82;;
42682;SDS011;28293;50.930;3.464;2023-03-21T10:59:51;10.77;;;4.93;;
42682;SDS011;28293;50.930;3.464;2023-03-21T11:02:24;22.67;;;5.15;;
42682;SDS011;28293;50.930;3.464;2023-03-21T11:05:04;12.00;;;5.38;;
42682;SDS011;28293;50.930;3.464;2023-03-21T11:11:05;9.35;;;4.50;;
42682;SDS011;28293;50.930;3.464;2023-03-21T11:13:36;9.60;;;4.97;;
42682;SDS011;28293;50.930;3.464;2023-03-21T11:16:08;10.63;;;4.93;;
42682;SDS011;28293;50.930;3.464;2023-03-21T11:18:42;14.00;;;5.38;;
42682;SDS011;28293;50.930;3.464;2023-03-21T11:21:17;13.00;;;5.78;;
42682;SDS011;28293;50.930;3.464;2023-03-21T11:23:47;11.75;;;5.75;;
42682;SDS011;28293;50.930;3.464;2023-03-21T11:26:21;10.15;;;5.93;;
42682;SDS011;28293;50.930;3.464;2023-03-21T11:29:07;11.23;;;5.70;;
42682;SDS011;28293;50.930;3.464;2023-03-21T11:31:56;13.90;;;5.88;;
42682;SDS011;28293;50.930;3.464;2023-03-21T11:34:25;12.68;;;6.13;;
42682;SDS011;28293;50.930;3.464;2023-03-21T11:37:02;14.75;;;5.97;;
42682;SDS011;28293;50.930;3.464;2023-03-21T11:39:35;14.30;;;6.20;;
42682;SDS011;28293;50.930;3.464;2023-03-21T11:42:05;12.15;;;5.57;;
42682;SDS011;28293;50.930;3.464;2023-03-21T11:44:49;13.02;;;6.22;;
42682;SDS011;28293;50.930;3.464;2023-03-21T11:47:26;11.77;;;6.05;;
42682;SDS011;28293;50.930;3.464;2023-03-21T11:49:52;12.85;;;5.28;;
42682;SDS011;28293;50.930;3.464;2023-03-21T11:52:42;9.90;;;5.40;;
42682;SDS011;28293;50.930;3.464;2023-03-21T12:01:22;15.10;;;6.57;;
42682;SDS011;28293;50.930;3.464;2023-03-21T12:06:14;12.07;;;6.50;;
42682;SDS011;28293;50.930;3.464;2023-03-21T12:16:58;13.27;;;6.50;;
42682;SDS011;28293;50.930;3.464;2023-03-21T12:33:06;11.02;;;6.78;;
42682;SDS011;28293;50.930;3.464;2023-03-21T12:38:42;12.20;;;6.35;;
42682;SDS011;28293;50.930;3.464;2023-03-21T12:41:56;13.50;;;5.78;;
42682;SDS011;28293;50.930;3.464;2023-03-21T12:44:09;12.75;;;5.53;;
42682;SDS011;28293;50.930;3.464;2023-03-21T12:46:48;14.07;;;5.38;;
42682;SDS011;28293;50.930;3.464;2023-03-21T12:52:18;10.27;;;5.95;;
42682;SDS011;28293;50.930;3.464;2023-03-21T12:54:51;12.48;;;7.15;;
42682;SDS011;28293;50.930;3.464;2023-03-21T12:57:19;13.07;;;7.63;;
42682;SDS011;28293;50.930;3.464;2023-03-21T13:08:08;10.73;;;6.70;;
42682;SDS011;28293;50.930;3.464;2023-03-21T13:10:48;10.75;;;5.85;;
42682;SDS011;28293;50.930;3.464;2023-03-21T13:21:50;10.80;;;6.57;;
42682;SDS011;28293;50.930;3.464;2023-03-21T13:26:48;9.23;;;4.82;;
42682;SDS011;28293;50.930;3.464;2023-03-21T13:29:23;7.63;;;4.88;;
42682;SDS011;28293;50.930;3.464;2023-03-21T13:31:51;8.00;;;4.43;;
42682;SDS011;28293;50.930;3.464;2023-03-21T13:34:22;7.47;;;4.85;;
42682;SDS011;28293;50.930;3.464;2023-03-21T13:36:49;9.57;;;5.53;;
42682;SDS011;28293;50.930;3.464;2023-03-21T13:39:22;9.75;;;5.70;;
42682;SDS011;28293;50.930;3.464;2023-03-21T13:41:50;10.85;;;5.93;;
42682;SDS011;28293;50.930;3.464;2023-03-21T13:46:53;10.52;;;6.43;;
42682;SDS011;28293;50.930;3.464;2023-03-21T13:49:26;9.63;;;5.88;;
42682;SDS011;28293;50.930;3.464;2023-03-21T13:51:55;10.68;;;5.97;;
42682;SDS011;28293;50.930;3.464;2023-03-21T13:57:28;9.40;;;5.47;;
42682;SDS011;28293;50.930;3.464;2023-03-21T14:05:22;9.73;;;5.55;;
42682;SDS011;28293;50.930;3.464;2023-03-21T14:07:52;7.60;;;5.60;;
42682;SDS011;28293;50.930;3.464;2023-03-21T14:10:24;9.65;;;5.72;;
42682;SDS011;28293;50.930;3.464;2023-03-21T14:13:03;8.43;;;5.13;;
42682;SDS011;28293;50.930;3.464;2023-03-21T14:15:37;11.10;;;4.72;;
42682;SDS011;28293;50.930;3.464;2023-03-21T14:18:06;11.15;;;5.60;;
42682;SDS011;28293;50.930;3.464;2023-03-21T14:20:33;7.40;;;4.57;;
42682;SDS011;28293;50.930;3.464;2023-03-21T14:23:05;6.50;;;4.20;;
42682;SDS011;28293;50.930;3.464;2023-03-21T14:25:37;8.07;;;3.90;;
42682;SDS011;28293;50.930;3.464;2023-03-21T14:28:05;7.85;;;3.78;;
42682;SDS011;28293;50.930;3.464;2023-03-21T14:30:39;6.82;;;3.13;;
42682;SDS011;28293;50.930;3.464;2023-03-21T14:35:41;7.72;;;3.40;;
42682;SDS011;28293;50.930;3.464;2023-03-21T14:38:17;7.38;;;3.80;;
42682;SDS011;28293;50.930;3.464;2023-03-21T14:40:46;7.88;;;3.13;;
42682;SDS011;28293;50.930;3.464;2023-03-21T14:43:20;8.07;;;3.22;;
42682;SDS011;28293;50.930;3.464;2023-03-21T14:45:47;8.70;;;2.85;;
42682;SDS011;28293;50.930;3.464;2023-03-21T14:48:16;8.27;;;3.65;;
42682;SDS011;28293;50.930;3.464;2023-03-21T14:53:15;5.93;;;2.70;;
42682;SDS011;28293;50.930;3.464;2023-03-21T14:55:58;7.70;;;3.17;;
42682;SDS011;28293;50.930;3.464;2023-03-21T14:58:32;6.22;;;3.00;;
42682;SDS011;28293;50.930;3.464;2023-03-21T15:01:02;9.45;;;3.75;;
42682;SDS011;28293;50.930;3.464;2023-03-21T15:03:30;6.85;;;3.08;;
42682;SDS011;28293;50.930;3.464;2023-03-21T15:05:57;8.80;;;3.60;;
42682;SDS011;28293;50.930;3.464;2023-03-21T15:08:24;8.13;;;3.45;;
42682;SDS011;28293;50.930;3.464;2023-03-21T15:11:13;9.30;;;3.35;;
42682;SDS011;28293;50.930;3.464;2023-03-21T15:13:43;9.63;;;3.60;;
42682;SDS011;28293;50.930;3.464;2023-03-21T15:16:13;7.80;;;3.80;;
42682;SDS011;28293;50.930;3.464;2023-03-21T15:18:40;7.30;;;3.70;;
42682;SDS011;28293;50.930;3.464;2023-03-21T15:23:52;5.68;;;3.25;;
42682;SDS011;28293;50.930;3.464;2023-03-21T15:26:20;6.25;;;3.10;;
42682;SDS011;28293;50.930;3.464;2023-03-21T15:28:48;8.15;;;3.65;;
42682;SDS011;28293;50.930;3.464;2023-03-21T15:31:20;8.88;;;4.00;;
42682;SDS011;28293;50.930;3.464;2023-03-21T15:33:48;8.13;;;3.40;;
42682;SDS011;28293;50.930;3.464;2023-03-21T15:36:35;6.38;;;3.88;;
42682;SDS011;28293;50.930;3.464;2023-03-21T15:39:07;8.73;;;3.97;;
42682;SDS011;28293;50.930;3.464;2023-03-21T15:41:38;7.45;;;3.47;;
42682;SDS011;28293;50.930;3.464;2023-03-21T15:46:53;7.50;;;3.22;;
42682;SDS011;28293;50.930;3.464;2023-03-21T15:49:22;8.68;;;3.58;;
42682;SDS011;28293;50.930;3.464;2023-03-21T15:51:56;8.15;;;4.38;;
42682;SDS011;28293;50.930;3.464;2023-03-21T15:54:29;7.70;;;3.65;;
42682;SDS011;28293;50.930;3.464;2023-03-21T15:56:58;8.65;;;4.35;;
42682;SDS011;28293;50.930;3.464;2023-03-21T15:59:35;9.65;;;4.47;;
42682;SDS011;28293;50.930;3.464;2023-03-21T16:02:11;8.10;;;4.47;;
42682;SDS011;28293;50.930;3.464;2023-03-21T16:05:00;9.57;;;4.32;;
42682;SDS011;28293;50.930;3.464;2023-03-21T16:07:47;11.23;;;4.63;;
42682;SDS011;28293;50.930;3.464;2023-03-21T16:10:24;7.95;;;4.70;;
42682;SDS011;28293;50.930;3.464;2023-03-21T16:12:56;10.10;;;4.88;;
42682;SDS011;28293;50.930;3.464;2023-03-21T16:15:23;13.07;;;4.97;;
42682;SDS011;28293;50.930;3.464;2023-03-21T16:17:57;9.52;;;5.10;;
42682;SDS011;28293;50.930;3.464;2023-03-21T16:20:26;10.02;;;5.68;;
42682;SDS011;28293;50.930;3.464;2023-03-21T16:22:56;10.52;;;5.55;;
42682;SDS011;28293;50.930;3.464;2023-03-21T16:25:22;12.98;;;6.15;;
42682;SDS011;28293;50.930;3.464;2023-03-21T16:27:48;14.48;;;5.95;;
42682;SDS011;28293;50.930;3.464;2023-03-21T16:30:16;11.55;;;5.70;;
42682;SDS011;28293;50.930;3.464;2023-03-21T16:32:44;13.52;;;6.20;;
42682;SDS011;28293;50.930;3.464;2023-03-21T16:35:10;16.10;;;6.45;;
42682;SDS011;28293;50.930;3.464;2023-03-21T16:37:36;10.68;;;6.03;;
42682;SDS011;28293;50.930;3.464;2023-03-21T16:40:02;10.38;;;6.82;;
42682;SDS011;28293;50.930;3.464;2023-03-21T16:42:38;12.68;;;6.93;;
42682;SDS011;28293;50.930;3.464;2023-03-21T16:45:03;11.02;;;7.00;;
42682;SDS011;28293;50.930;3.464;2023-03-21T16:47:30;14.40;;;8.00;;
42682;SDS011;28293;50.930;3.464;2023-03-21T16:49:55;15.65;;;11.43;;
42682;SDS011;28293;50.930;3.464;2023-03-21T16:52:21;12.57;;;7.22;;